Time;durP1;ratioP1;P1;durP2;ratioP2;P2;SDS_P1;SDS_P2;PMS_P1;PMS_P2;Temp;Humidity;BMP_temperature;BMP_pressure;BME280_temperature;BME280_humidity;BME280_pressure;Samples;Min_cycle;Max_cycle;Signal;HPM_P1;HPM_P2
2022/06/02 00:00:12;;;;;;;7.00;3.28;;;16.20;99.90;;;;;;4959225;28;20035;-63
2022/06/02 00:02:56;;;;;;;6.97;3.72;;;16.10;99.90;;;;;;4966142;28;20031;-62
2022/06/02 00:05:25;;;;;;;10.07;7.28;;;16.00;99.90;;;;;;4958042;28;20102;-65
2022/06/02 00:08:19;;;;;;;7.50;4.45;;;15.90;99.90;;;;;;4995094;28;20050;-63
2022/06/02 00:10:49;;;;;;;7.80;4.38;;;15.80;99.90;;;;;;4963655;28;20026;-65
2022/06/02 00:13:14;;;;;;;8.13;4.25;;;15.70;99.90;;;;;;4959973;28;20434;-62
2022/06/02 00:15:45;;;;;;;7.05;4.65;;;15.60;99.90;;;;;;4966062;28;20118;-65
2022/06/02 00:18:16;;;;;;;8.52;5.50;;;15.50;99.90;;;;;;4974680;28;20050;-66
2022/06/02 00:20:44;;;;;;;10.90;5.03;;;15.40;99.90;;;;;;4975319;28;20624;-65
2022/06/02 00:23:22;;;;;;;7.85;5.47;;;15.30;99.90;;;;;;4975145;28;20034;-67
2022/06/02 00:25:53;;;;;;;10.63;5.13;;;15.20;99.90;;;;;;4975444;28;20018;-61
2022/06/02 00:28:34;;;;;;;13.20;6.22;;;15.10;99.90;;;;;;4975281;28;20085;-65
2022/06/02 00:31:36;;;;;;;11.45;5.95;;;15.10;99.90;;;;;;4975271;28;20034;-65
2022/06/02 00:34:14;;;;;;;15.40;5.75;;;15.10;99.90;;;;;;4975271;28;20431;-66
2022/06/02 00:37:04;;;;;;;8.05;5.30;;;15.00;99.90;;;;;;4975255;28;20022;-67
2022/06/02 00:39:33;;;;;;;9.57;5.05;;;14.90;99.90;;;;;;4975003;28;20039;-66
2022/06/02 00:42:12;;;;;;;8.45;4.93;;;14.80;99.90;;;;;;4975346;28;20031;-63
2022/06/02 00:44:58;;;;;;;10.50;5.68;;;14.80;99.90;;;;;;4974845;28;20541;-62
2022/06/02 00:47:40;;;;;;;8.93;5.75;;;14.80;99.90;;;;;;4974635;28;20035;-65
2022/06/02 00:50:11;;;;;;;9.73;5.43;;;14.80;99.90;;;;;;4974490;28;20371;-62
2022/06/02 00:52:59;;;;;;;9.10;5.53;;;14.70;99.90;;;;;;4957576;28;20038;-62
2022/06/02 00:59:16;;;;;;;10.07;6.63;;;14.80;99.90;;;;;;4974818;28;20096;-63
2022/06/02 01:01:42;;;;;;;11.57;5.60;;;14.70;99.90;;;;;;4958101;28;20034;-62
2022/06/02 01:04:15;;;;;;;9.00;5.40;;;14.60;99.90;;;;;;4974707;28;20034;-62
2022/06/02 01:06:59;;;;;;;10.43;6.05;;;14.70;99.90;;;;;;4980032;28;20497;-61
2022/06/02 01:09:36;;;;;;;7.57;4.72;;;14.60;99.90;;;;;;4993675;28;20110;-66
2022/06/02 01:12:08;;;;;;;7.82;4.57;;;14.60;99.90;;;;;;4993946;28;20022;-67
2022/06/02 01:14:59;;;;;;;9.30;5.20;;;14.60;99.90;;;;;;4987439;28;20139;-67
2022/06/02 01:17:40;;;;;;;10.50;5.50;;;14.60;99.90;;;;;;4972491;28;20044;-64
2022/06/02 01:20:40;;;;;;;10.20;5.45;;;14.60;99.90;;;;;;4973163;28;20027;-62
2022/06/02 01:23:30;;;;;;;7.25;4.88;;;14.60;99.90;;;;;;4944008;28;20046;-62
2022/06/02 01:26:02;;;;;;;7.53;4.47;;;14.60;99.90;;;;;;4993337;28;20045;-62
2022/06/02 01:28:50;;;;;;;10.95;5.07;;;14.50;99.90;;;;;;4993445;28;20110;-62
2022/06/02 01:31:37;;;;;;;6.13;3.90;;;14.60;99.90;;;;;;4953250;28;20117;-65
2022/06/02 01:34:20;;;;;;;7.60;4.13;;;14.60;99.90;;;;;;4993629;28;20108;-64
2022/06/02 01:37:07;;;;;;;6.57;3.63;;;14.50;99.90;;;;;;4993360;28;20159;-66
2022/06/02 01:39:38;;;;;;;6.68;3.42;;;14.50;99.90;;;;;;4993293;28;20085;-62
2022/06/02 01:42:27;;;;;;;7.85;3.78;;;14.40;99.90;;;;;;4992132;28;20114;-62
2022/06/02 01:44:59;;;;;;;;;;;14.40;99.90;;;;;;4993656;28;20030;-62
2022/06/02 01:47:36;;;;;;;6.13;3.83;;;14.50;99.90;;;;;;4992152;28;20380;-62
2022/06/02 01:50:39;;;;;;;7.70;4.20;;;14.50;99.90;;;;;;4992996;28;20065;-62
2022/06/02 01:53:15;;;;;;;6.15;3.65;;;14.60;99.90;;;;;;4993065;28;20032;-62
2022/06/02 01:56:06;;;;;;;7.45;4.25;;;14.60;99.90;;;;;;4992876;28;20041;-62
2022/06/02 01:58:53;;;;;;;6.20;3.78;;;14.60;99.90;;;;;;4992947;28;20113;-62
2022/06/02 02:01:41;;;;;;;6.43;3.65;;;14.60;99.90;;;;;;4991876;28;20437;-62
2022/06/02 02:04:21;;;;;;;9.47;4.10;;;14.60;99.90;;;;;;4991356;28;20132;-62
2022/06/02 02:07:00;;;;;;;6.68;4.28;;;14.60;99.90;;;;;;4993066;28;20423;-62
2022/06/02 02:09:47;;;;;;;7.55;3.42;;;14.60;99.90;;;;;;4992786;28;20442;-62
2022/06/02 02:12:37;;;;;;;7.70;3.72;;;14.60;99.90;;;;;;4992669;28;20026;-62
2022/06/02 02:15:12;;;;;;;6.22;3.58;;;14.60;99.90;;;;;;4992307;28;20050;-63
2022/06/02 02:18:10;;;;;;;5.45;3.70;;;14.60;99.90;;;;;;4992656;28;20406;-63
2022/06/02 02:20:54;;;;;;;8.40;4.30;;;14.60;99.90;;;;;;4955084;28;20042;-63
2022/06/02 02:23:54;;;;;;;5.38;4.20;;;14.60;99.90;;;;;;4991987;28;20050;-63
2022/06/02 02:26:42;;;;;;;6.47;4.53;;;14.70;99.90;;;;;;4975027;28;20030;-64
2022/06/02 02:29:41;;;;;;;7.43;4.65;;;14.50;99.90;;;;;;4975163;28;20030;-63
2022/06/02 02:32:10;;;;;;;8.73;4.75;;;14.30;99.90;;;;;;4992564;28;20029;-63
2022/06/02 02:34:57;;;;;;;11.13;5.25;;;14.30;99.90;;;;;;4992124;28;20023;-64
2022/06/02 02:37:27;;;;;;;8.77;6.00;;;14.40;99.90;;;;;;4980630;28;20027;-63
2022/06/02 02:40:07;;;;;;;8.70;5.88;;;14.40;99.90;;;;;;4972604;28;20035;-64
2022/06/02 02:42:59;;;;;;;10.57;6.03;;;14.30;99.90;;;;;;4973174;28;20031;-63
2022/06/02 02:45:46;;;;;;;10.15;5.90;;;14.40;99.90;;;;;;4972916;28;20023;-62
2022/06/02 02:48:34;;;;;;;10.55;5.53;;;14.40;99.90;;;;;;4972549;28;20482;-64
2022/06/02 02:51:15;;;;;;;8.13;5.97;;;14.30;99.90;;;;;;4972451;28;20034;-63
2022/06/02 02:53:50;;;;;;;7.85;5.35;;;14.30;99.90;;;;;;4954993;28;20178;-64
2022/06/02 02:56:39;;;;;;;8.73;6.43;;;14.30;99.90;;;;;;4972750;28;20086;-63
2022/06/02 02:59:23;;;;;;;7.78;5.70;;;14.40;99.90;;;;;;4971714;28;20055;-63
2022/06/02 03:02:14;;;;;;;11.60;6.70;;;14.50;99.90;;;;;;4972515;28;20085;-64
2022/06/02 03:04:55;;;;;;;9.93;6.40;;;14.60;99.90;;;;;;4972216;28;20031;-64
2022/06/02 03:07:21;;;;;;;12.70;6.60;;;14.60;99.90;;;;;;4982230;28;20508;-64
2022/06/02 03:10:05;;;;;;;9.35;6.35;;;14.60;99.90;;;;;;4991788;28;20057;-64
2022/06/02 03:12:49;;;;;;;10.73;6.47;;;14.60;99.90;;;;;;4991853;28;20100;-64
2022/06/02 03:15:53;;;;;;;11.80;7.13;;;14.60;99.90;;;;;;4991247;28;20049;-65
2022/06/02 03:18:38;;;;;;;7.30;6.05;;;14.60;99.90;;;;;;4991504;28;20066;-65
2022/06/02 03:21:15;;;;;;;9.40;6.13;;;14.80;99.90;;;;;;4991589;28;20030;-65
2022/06/02 03:24:01;;;;;;;;;;;14.70;99.90;;;;;;4991838;28;20030;-65
2022/06/02 03:26:39;;;;;;;7.95;6.05;;;14.70;99.90;;;;;;4991545;28;19912;-65
2022/06/02 03:29:14;;;;;;;12.90;7.43;;;14.70;99.90;;;;;;4991473;28;20113;-65
2022/06/02 03:32:02;;;;;;;10.88;7.30;;;14.70;99.90;;;;;;4973719;28;20034;-66
2022/06/02 03:34:59;;;;;;;11.33;7.13;;;14.50;99.90;;;;;;4991519;28;20077;-66
2022/06/02 03:38:01;;;;;;;9.93;7.13;;;14.50;99.90;;;;;;4991258;28;20412;-65
2022/06/02 03:41:08;;;;;;;10.88;7.05;;;14.60;99.90;;;;;;4976004;28;20049;-64
2022/06/02 03:43:51;;;;;;;12.52;6.78;;;14.60;99.90;;;;;;4957844;28;20031;-66
2022/06/02 03:46:54;;;;;;;10.40;7.00;;;14.50;99.90;;;;;;4991063;28;20031;-65
2022/06/02 03:49:46;;;;;;;13.15;6.95;;;14.50;99.90;;;;;;4978374;28;20043;-66
2022/06/02 03:52:39;;;;;;;11.07;7.32;;;14.40;99.90;;;;;;4990887;28;20026;-66
2022/06/02 03:55:14;;;;;;;10.27;8.02;;;14.50;99.90;;;;;;4991454;28;20041;-65
2022/06/02 03:58:02;;;;;;;11.98;6.55;;;14.50;99.90;;;;;;4990971;28;20040;-65
2022/06/02 04:00:43;;;;;;;10.68;7.10;;;14.40;99.90;;;;;;4991341;28;20030;-67
2022/06/02 04:03:15;;;;;;;10.15;7.43;;;14.50;99.90;;;;;;4991345;28;20034;-66
2022/06/02 04:06:06;;;;;;;11.55;7.20;;;14.50;99.90;;;;;;4991411;28;20027;-66
2022/06/02 04:08:51;;;;;;;13.43;9.18;;;14.40;99.90;;;;;;4990670;28;20037;-65
2022/06/02 04:14:50;;;;;;;14.80;10.27;;;14.50;99.90;;;;;;4990659;28;20078;-65
2022/06/02 04:17:44;;;;;;;17.73;10.82;;;14.50;99.90;;;;;;4990669;28;20557;-66
2022/06/02 04:20:36;;;;;;;18.08;10.60;;;14.50;99.90;;;;;;4988287;28;20034;-65
2022/06/02 04:23:40;;;;;;;17.30;11.15;;;14.50;99.90;;;;;;4990967;28;20022;-64
2022/06/02 04:26:30;;;;;;;17.23;10.32;;;14.50;99.90;;;;;;4990982;28;20023;-65
2022/06/02 04:29:49;;;;;;;14.32;10.10;;;14.60;99.90;;;;;;4991025;28;20027;-66
2022/06/02 04:32:41;;;;;;;11.48;8.75;;;14.50;99.90;;;;;;4877251;29;20068;-64
2022/06/02 04:35:42;;;;;;;15.32;9.85;;;14.50;99.90;;;;;;4988049;28;20093;-65
2022/06/02 04:38:38;;;;;;;13.63;9.15;;;14.60;99.90;;;;;;4936825;28;20397;-65
2022/06/02 04:41:22;;;;;;;12.90;9.75;;;14.60;99.90;;;;;;4991332;28;20465;-65
2022/06/02 04:44:15;;;;;;;11.27;8.05;;;14.70;99.90;;;;;;4994089;28;20026;-66
2022/06/02 04:47:05;;;;;;;12.75;9.20;;;14.70;99.90;;;;;;4994763;28;20023;-66
2022/06/02 04:49:47;;;;;;;15.05;7.22;;;14.70;99.90;;;;;;4994452;28;20073;-65
2022/06/02 04:52:48;;;;;;;13.35;8.88;;;14.70;99.90;;;;;;4994599;28;20030;-65
2022/06/02 04:55:40;;;;;;;15.25;8.82;;;14.90;99.90;;;;;;4896147;29;20033;-65
2022/06/02 04:58:25;;;;;;;14.43;9.80;;;14.90;99.90;;;;;;4991514;28;20039;-66
2022/06/02 05:01:04;;;;;;;12.45;9.55;;;14.90;99.90;;;;;;4994320;28;20018;-67
2022/06/02 05:03:43;;;;;;;14.75;9.23;;;14.90;99.90;;;;;;4994047;28;20433;-65
2022/06/02 05:06:33;;;;;;;11.00;7.45;;;15.00;99.90;;;;;;4994252;28;20101;-66
2022/06/02 05:09:09;;;;;;;10.70;7.68;;;14.90;99.90;;;;;;4993663;28;20030;-66
2022/06/02 05:11:43;;;;;;;9.10;6.15;;;15.00;99.90;;;;;;4994107;28;20026;-64
2022/06/02 05:14:30;;;;;;;9.00;5.60;;;15.00;99.90;;;;;;4993596;28;20062;-65
2022/06/02 05:17:36;;;;;;;9.35;5.65;;;15.20;99.90;;;;;;4993990;28;20094;-65
2022/06/02 05:20:20;;;;;;;7.88;5.18;;;15.20;99.90;;;;;;4993481;28;20113;-64
2022/06/02 05:22:55;;;;;;;9.85;5.63;;;15.20;99.90;;;;;;4993621;28;20046;-64
2022/06/02 05:25:33;;;;;;;10.52;5.60;;;15.20;99.90;;;;;;4993968;28;20030;-64
2022/06/02 05:28:07;;;;;;;9.85;4.53;;;15.20;99.90;;;;;;4993639;28;20026;-66
2022/06/02 05:30:42;;;;;;;8.68;5.15;;;15.30;99.90;;;;;;4993442;28;20072;-65
2022/06/02 05:33:44;;;;;;;8.77;5.00;;;15.40;99.90;;;;;;4993552;28;20101;-66
2022/06/02 05:36:28;;;;;;;7.47;4.60;;;15.40;99.90;;;;;;4993776;28;20022;-64
2022/06/02 05:39:18;;;;;;;8.00;4.20;;;15.50;99.90;;;;;;4993032;28;20045;-66
2022/06/02 05:42:05;;;;;;;7.72;4.05;;;15.60;99.90;;;;;;4993406;28;20022;-63
2022/06/02 05:44:49;;;;;;;6.32;4.63;;;15.70;99.90;;;;;;4993699;28;20097;-65
2022/06/02 05:47:52;;;;;;;6.88;3.33;;;15.80;99.90;;;;;;4993186;28;20030;-64
2022/06/02 05:50:30;;;;;;;6.82;3.03;;;15.90;99.90;;;;;;4993508;28;20232;-64
2022/06/02 05:53:27;;;;;;;5.00;3.58;;;15.90;99.90;;;;;;4992035;28;20170;-66
2022/06/02 05:56:06;;;;;;;6.15;3.60;;;15.90;99.90;;;;;;4993407;28;20023;-65
2022/06/02 05:58:40;;;;;;;6.03;3.30;;;15.90;99.90;;;;;;4993078;28;20108;-65
2022/06/02 06:01:31;;;;;;;6.05;4.25;;;15.90;99.90;;;;;;4993292;28;20088;-66
2022/06/02 06:04:30;;;;;;;8.52;4.82;;;16.00;99.90;;;;;;4992930;28;20031;-64
2022/06/02 06:07:01;;;;;;;10.63;4.63;;;16.10;99.90;;;;;;4992955;28;20027;-65
2022/06/02 06:09:51;;;;;;;6.70;4.63;;;16.20;99.90;;;;;;4992866;28;20114;-64
2022/06/02 06:12:26;;;;;;;8.57;5.05;;;16.20;99.90;;;;;;4992565;28;20427;-65
2022/06/02 06:15:09;;;;;;;9.15;6.10;;;16.20;99.90;;;;;;4992692;28;20482;-66
2022/06/02 06:18:02;;;;;;;11.48;5.30;;;16.20;99.90;;;;;;4992729;28;20634;-64
2022/06/02 06:20:34;;;;;;;7.82;5.38;;;16.30;99.90;;;;;;4992787;28;20110;-64
2022/06/02 06:23:33;;;;;;;14.18;5.63;;;16.30;99.90;;;;;;4992557;28;20023;-64
2022/06/02 06:26:11;;;;;;;4.70;3.50;;;16.40;99.90;;;;;;4992791;28;20415;-66
2022/06/02 06:29:00;;;;;;;6.70;3.90;;;16.40;99.90;;;;;;4992681;28;20018;-64
2022/06/02 06:31:31;;;;;;;;;;;16.40;99.90;;;;;;4993066;28;20481;-64
2022/06/02 06:34:07;;;;;;;6.18;3.88;;;16.40;99.90;;;;;;4992407;28;19906;-65
2022/06/02 06:36:45;;;;;;;6.50;4.05;;;16.50;99.90;;;;;;4992550;28;20030;-65
2022/06/02 06:39:30;;;;;;;;;;;16.50;99.90;;;;;;4975138;28;20129;-65
2022/06/02 06:42:02;;;;;;;7.68;3.88;;;16.40;99.90;;;;;;4978160;28;19906;-64
2022/06/02 06:44:36;;;;;;;6.47;4.47;;;16.60;99.90;;;;;;4992288;28;20014;-65
2022/06/02 06:47:14;;;;;;;5.82;4.10;;;16.70;99.90;;;;;;4992349;28;20034;-64
2022/06/02 06:50:07;;;;;;;7.50;3.67;;;16.80;99.90;;;;;;4991930;28;20030;-64
2022/06/02 06:53:04;;;;;;;10.35;4.30;;;16.80;99.90;;;;;;4992101;28;20379;-65
2022/06/02 06:55:38;;;;;;;5.75;3.72;;;16.90;99.90;;;;;;4992017;28;20393;-64
2022/06/02 06:58:19;;;;;;;6.43;4.28;;;17.00;99.90;;;;;;4991520;28;20492;-64
2022/06/02 07:01:12;;;;;;;6.95;4.60;;;16.90;99.90;;;;;;4992159;28;20026;-65
2022/06/02 07:03:49;;;;;;;7.00;5.13;;;16.90;99.90;;;;;;4991848;28;20026;-66
2022/06/02 07:06:42;;;;;;;6.95;5.05;;;17.00;99.90;;;;;;4991123;28;20500;-66
2022/06/02 07:09:20;;;;;;;8.45;5.55;;;17.00;99.90;;;;;;4991681;28;20553;-65
2022/06/02 07:15:29;;;;;;;12.20;7.72;;;17.10;99.90;;;;;;4991069;28;20139;-65
2022/06/02 07:18:19;;;;;;;10.93;7.25;;;17.00;99.90;;;;;;4958420;28;20101;-65
2022/06/02 07:21:07;;;;;;;9.20;7.18;;;16.90;99.90;;;;;;4991359;28;20073;-64
2022/06/02 07:23:49;;;;;;;11.90;7.35;;;16.80;99.90;;;;;;4991339;28;20049;-65
2022/06/02 07:26:27;;;;;;;12.75;7.47;;;16.70;99.90;;;;;;4991547;28;20041;-65
2022/06/02 07:29:19;;;;;;;12.25;8.20;;;16.60;99.90;;;;;;4973702;28;20068;-66
2022/06/02 07:32:26;;;;;;;10.82;7.85;;;16.50;99.90;;;;;;4991427;28;20068;-65
2022/06/02 07:35:29;;;;;;;10.30;6.97;;;16.50;99.90;;;;;;4986520;28;20046;-65
2022/06/02 07:38:06;;;;;;;11.52;7.50;;;16.40;99.90;;;;;;4991048;28;20504;-64
2022/06/02 07:41:06;;;;;;;15.38;8.27;;;16.40;99.90;;;;;;4991408;28;20030;-66
2022/06/02 07:43:50;;;;;;;;;;;16.60;99.90;;;;;;4991862;28;20031;-65
2022/06/02 07:46:42;;;;;;;10.85;7.82;;;16.60;99.90;;;;;;4991273;28;19906;-67
2022/06/02 07:49:45;;;;;;;9.35;6.72;;;16.80;99.90;;;;;;4973771;28;20033;-67
2022/06/02 07:52:36;;;;;;;13.20;7.47;;;16.90;99.90;;;;;;4973257;28;20422;-65
2022/06/02 07:55:18;;;;;;;9.00;5.68;;;17.00;99.90;;;;;;4991149;28;20027;-66
2022/06/02 07:58:21;;;;;;;10.88;6.40;;;17.10;99.90;;;;;;4991196;28;20034;-66
2022/06/02 08:01:00;;;;;;;12.38;8.90;;;17.10;99.90;;;;;;4970142;28;20181;-65
2022/06/02 08:03:29;;;;;;;10.35;6.28;;;17.30;99.90;;;;;;4991241;28;20405;-67
2022/06/02 08:06:14;;;;;;;12.90;6.40;;;17.30;99.90;;;;;;4991143;28;20022;-64
2022/06/02 08:09:13;;;;;;;9.23;5.55;;;17.20;99.90;;;;;;4973492;28;20026;-65
2022/06/02 08:11:48;;;;;;;8.65;4.93;;;17.10;99.90;;;;;;4991256;28;20049;-63
2022/06/02 08:14:42;;;;;;;6.15;4.15;;;17.00;99.90;;;;;;4990889;28;20126;-66
2022/06/02 08:17:20;;;;;;;6.45;4.40;;;17.00;99.90;;;;;;4993523;28;20466;-65
2022/06/02 08:20:28;;;;;;;4.85;3.60;;;17.20;99.90;;;;;;4994967;28;20038;-66
2022/06/02 08:23:12;;;;;;;7.70;4.25;;;17.20;99.90;;;;;;4994743;28;20157;-67
2022/06/02 08:25:56;;;;;;;8.63;3.85;;;17.20;99.90;;;;;;4994848;28;20022;-65
2022/06/02 08:28:27;;;;;;;6.03;3.53;;;17.20;99.90;;;;;;4994854;28;20186;-66
2022/06/02 08:31:14;;;;;;;5.65;3.25;;;17.30;99.90;;;;;;4994661;28;20631;-67
2022/06/02 08:33:46;;;;;;;4.18;3.17;;;17.20;99.90;;;;;;4994665;28;20038;-64
2022/06/02 08:36:14;;;;;;;7.00;3.33;;;17.20;99.90;;;;;;4994790;28;20064;-66
2022/06/02 08:38:58;;;;;;;6.32;3.47;;;17.00;99.90;;;;;;4994042;28;20034;-67
2022/06/02 08:41:45;;;;;;;6.30;3.00;;;16.80;99.90;;;;;;4994604;28;20030;-65
2022/06/02 08:44:52;;;;;;;6.00;3.42;;;16.70;99.90;;;;;;4994205;28;20023;-67
2022/06/02 08:47:46;;;;;;;7.82;2.90;;;16.90;99.90;;;;;;4994441;28;20076;-65
2022/06/02 08:50:36;;;;;;;3.90;2.72;;;17.00;99.90;;;;;;4994361;28;20037;-65
2022/06/02 08:53:32;;;;;;;3.15;2.53;;;17.10;99.90;;;;;;4994119;28;20492;-66
2022/06/02 08:56:01;;;;;;;5.20;2.67;;;17.20;99.90;;;;;;4994371;28;20023;-66
2022/06/02 08:58:48;;;;;;;4.30;2.70;;;17.50;99.90;;;;;;4994165;28;20117;-65
2022/06/02 09:01:41;;;;;;;3.35;2.42;;;17.70;99.90;;;;;;4994082;28;20034;-66
2022/06/02 09:04:18;;;;;;;4.20;2.25;;;17.80;99.90;;;;;;4994267;28;20026;-65
2022/06/02 09:07:19;;;;;;;4.47;2.45;;;18.00;99.90;;;;;;4994264;28;20434;-67
2022/06/02 09:10:16;;;;;;;4.45;2.30;;;18.00;99.90;;;;;;4994011;28;20070;-65
2022/06/02 09:12:54;;;;;;;4.45;2.63;;;18.00;99.90;;;;;;4956452;28;20502;-65
2022/06/02 09:15:27;;;;;;;;;;;18.10;99.90;;;;;;4994546;28;20109;-63
2022/06/02 09:18:17;;;;;;;4.10;2.72;;;18.20;99.90;;;;;;4994001;28;19957;-66
2022/06/02 09:20:57;;;;;;;4.43;2.50;;;18.40;99.90;;;;;;4963454;28;20166;-65
2022/06/02 09:23:47;;;;;;;4.10;2.28;;;18.50;99.90;;;;;;4955302;29;20158;-66
2022/06/02 09:26:42;;;;;;;3.78;2.65;;;18.40;99.90;;;;;;4955048;29;20078;-66
2022/06/02 09:29:49;;;;;;;7.93;3.17;;;18.60;99.90;;;;;;4929188;29;20031;-66
2022/06/02 09:32:36;;;;;;;4.60;2.38;;;18.80;99.90;;;;;;4953850;29;20067;-65
2022/06/02 09:35:14;;;;;;;4.30;2.63;;;18.90;99.90;;;;;;4954912;29;20031;-64
2022/06/02 09:38:01;;;;;;;3.83;2.65;;;19.20;99.90;;;;;;4961286;28;20118;-64
2022/06/02 09:40:55;;;;;;;5.82;2.47;;;19.40;99.90;;;;;;4963082;28;20050;-66
2022/06/02 09:43:29;;;;;;;4.47;2.53;;;19.30;99.90;;;;;;4964404;28;20018;-67
2022/06/02 09:46:19;;;;;;;8.88;3.05;;;19.30;99.90;;;;;;4974068;28;20033;-65
2022/06/02 09:48:47;;;;;;;3.08;2.42;;;19.20;99.90;;;;;;4973835;28;20035;-65
2022/06/02 09:51:32;;;;;;;5.65;2.45;;;19.40;99.90;;;;;;4973792;28;20058;-63
2022/06/02 09:54:39;;;;;;;5.22;2.30;;;19.40;99.90;;;;;;4973961;28;20027;-66
2022/06/02 10:00:48;;;;;;;4.82;2.97;;;19.60;99.90;;;;;;4974063;28;20085;-66
2022/06/02 10:04:10;;;;;;;7.95;3.10;;;19.50;99.90;;;;;;4973394;28;20038;-66
2022/06/02 10:07:07;;;;;;;3.45;2.80;;;19.00;99.90;;;;;;4933228;29;20028;-64
2022/06/02 10:09:42;;;;;;;5.72;2.97;;;18.60;99.90;;;;;;4951646;29;20077;-64
2022/06/02 10:15:29;;;;;;;4.15;2.90;;;18.80;99.90;;;;;;4992703;28;20472;-64
2022/06/02 10:17:58;;;;;;;4.65;2.97;;;19.20;99.90;;;;;;4992511;28;20062;-62
2022/06/02 10:20:29;;;;;;;3.33;2.80;;;18.90;99.90;;;;;;4992397;28;20032;-65
2022/06/02 10:23:33;;;;;;;3.78;2.83;;;19.20;99.90;;;;;;4992474;28;20482;-64
2022/06/02 10:26:18;;;;;;;3.08;2.33;;;19.40;99.90;;;;;;4992581;28;20019;-64
2022/06/02 10:28:50;;;;;;;3.20;2.63;;;19.90;99.90;;;;;;4991249;28;20061;-63
2022/06/02 10:31:45;;;;;;;4.95;3.03;;;19.40;99.90;;;;;;4975979;28;20471;-61
2022/06/02 10:34:58;;;;;;;5.63;3.55;;;19.50;99.90;;;;;;4962620;28;20038;-61
2022/06/02 10:37:41;;;;;;;3.25;2.55;;;19.50;99.90;;;;;;4963723;28;20037;-62
2022/06/02 10:40:15;;;;;;;5.60;2.60;;;19.90;99.90;;;;;;4961306;28;20058;-62
2022/06/02 10:43:16;;;;;;;4.88;2.83;;;20.00;99.90;;;;;;4958967;28;20110;-65
2022/06/02 10:46:08;;;;;;;10.05;3.20;;;20.30;99.90;;;;;;4931105;29;20051;-64
2022/06/02 10:48:54;;;;;;;6.25;3.85;;;20.40;99.90;;;;;;4947277;29;20035;-64
2022/06/02 10:51:38;;;;;;;5.13;3.42;;;20.00;99.90;;;;;;4932771;29;20126;-65
2022/06/02 10:54:16;;;;;;;3.83;2.72;;;19.90;99.90;;;;;;4953337;29;20019;-63
2022/06/02 10:56:54;;;;;;;5.40;3.33;;;20.40;99.90;;;;;;4958400;28;20031;-63
2022/06/02 10:59:34;;;;;;;5.15;2.97;;;20.70;99.90;;;;;;4965214;28;20060;-64
2022/06/02 11:02:15;;;;;;;6.13;3.03;;;21.10;99.90;;;;;;4951410;29;20042;-64
2022/06/02 11:04:56;;;;;;;4.50;3.35;;;21.20;99.90;;;;;;4949837;29;20074;-64
2022/06/02 11:07:52;;;;;;;5.97;3.78;;;21.20;99.90;;;;;;4954537;28;20037;-64
2022/06/02 11:10:33;;;;;;;5.25;3.80;;;20.40;98.00;;;;;;4970129;28;20034;-64
2022/06/02 11:13:04;;;;;;;6.38;3.45;;;21.10;99.90;;;;;;4969848;28;20031;-64
2022/06/02 11:15:57;;;;;;;9.50;4.63;;;20.80;98.10;;;;;;4970868;28;20031;-63
2022/06/02 11:18:50;;;;;;;9.13;4.15;;;20.50;96.70;;;;;;4970469;28;20534;-64
2022/06/02 11:21:46;;;;;;;9.00;4.75;;;20.80;99.50;;;;;;4969509;28;20049;-64
2022/06/02 11:24:33;;;;;;;6.97;5.30;;;20.20;99.10;;;;;;4970131;28;20047;-64
2022/06/02 11:27:35;;;;;;;7.88;5.35;;;19.50;99.90;;;;;;4970574;28;20026;-64
2022/06/02 11:30:22;;;;;;;9.05;5.25;;;19.50;99.90;;;;;;4971880;28;20034;-66
2022/06/02 11:33:31;;;;;;;7.88;4.45;;;19.90;99.90;;;;;;5025368;23;20066;-92
2022/06/02 11:36:27;;;;;;;7.97;2.50;;;20.20;99.90;;;;;;4980635;28;20189;-92
2022/06/02 11:39:27;;;;;;;3.78;2.40;;;20.20;96.90;;;;;;4979809;28;20066;-94
2022/06/02 11:42:12;;;;;;;2.60;2.00;;;20.40;97.20;;;;;;4978972;28;20045;-95
2022/06/02 11:45:04;;;;;;;6.72;2.10;;;20.60;97.30;;;;;;4976729;28;20033;-93
2022/06/02 11:48:02;;;;;;;5.25;3.00;;;20.90;98.10;;;;;;4965872;28;20027;-92
2022/06/02 11:50:40;;;;;;;3.58;2.55;;;21.20;99.90;;;;;;4976263;28;20153;-94
2022/06/02 11:53:43;;;;;;;5.63;2.53;;;20.80;95.00;;;;;;4976265;28;20084;-95
2022/06/02 11:56:37;;;;;;;5.32;2.40;;;21.10;95.10;;;;;;4977252;28;20035;-94
2022/06/02 11:59:29;;;;;;;7.55;2.25;;;21.10;94.10;;;;;;4977033;28;20073;-95
2022/06/02 12:02:34;;;;;;;8.32;1.92;;;21.10;94.90;;;;;;4976781;28;20031;-92
2022/06/02 12:05:07;;;;;;;2.85;1.90;;;22.20;99.00;;;;;;4976680;28;20113;-95
2022/06/02 12:08:11;;;;;;;3.92;2.40;;;22.60;92.90;;;;;;4971225;28;20118;-93
2022/06/02 12:11:13;;;;;;;2.53;1.67;;;22.60;88.90;;;;;;4957449;28;20117;-93
2022/06/02 12:14:11;;;;;;;3.65;1.45;;;22.80;89.30;;;;;;4957185;28;20027;-92
2022/06/02 12:16:57;;;;;;;3.13;1.67;;;23.10;82.40;;;;;;4972048;28;20031;-94
2022/06/02 12:19:36;;;;;;;3.55;1.88;;;22.60;78.80;;;;;;4956519;28;20046;-92
2022/06/02 12:22:28;;;;;;;2.38;1.85;;;23.10;86.70;;;;;;4957397;28;20065;-93
2022/06/02 12:25:21;;;;;;;2.25;1.60;;;23.40;86.50;;;;;;4972967;28;20023;-92
2022/06/02 12:28:00;;;;;;;2.58;1.77;;;23.30;78.90;;;;;;4972796;28;20038;-92
2022/06/02 12:30:48;;;;;;;3.35;1.77;;;23.40;84.30;;;;;;4973829;28;20030;-93
2022/06/02 12:33:48;;;;;;;4.00;1.52;;;22.90;79.30;;;;;;4973521;28;20120;-92
2022/06/02 12:36:33;;;;;;;2.13;1.55;;;22.80;80.30;;;;;;4973621;28;20023;-92
2022/06/02 12:39:08;;;;;;;3.33;1.20;;;23.00;83.00;;;;;;4973252;28;20031;-95
2022/06/02 12:41:55;;;;;;;3.13;1.40;;;23.00;80.00;;;;;;4957028;28;20026;-92
2022/06/02 12:44:34;;;;;;;3.72;1.73;;;23.10;77.80;;;;;;4973574;28;20030;-92
2022/06/02 12:47:26;;;;;;;3.55;1.60;;;22.90;74.00;;;;;;4973777;28;20030;-92
2022/06/02 12:49:59;;;;;;;1.77;0.93;;;23.00;80.30;;;;;;4958793;28;20023;-94
2022/06/02 12:52:56;;;;;;;3.28;1.30;;;23.10;79.20;;;;;;4959196;28;20031;-93
2022/06/02 12:55:57;;;;;;;7.13;1.58;;;23.40;77.80;;;;;;4977900;28;20022;-94
2022/06/02 12:58:35;;;;;;;3.53;1.83;;;24.00;75.70;;;;;;4977045;28;20517;-94
2022/06/02 13:01:20;;;;;;;3.75;1.70;;;24.20;75.80;;;;;;4976347;28;20482;-93
2022/06/02 13:04:21;;;;;;;6.53;1.60;;;24.50;73.20;;;;;;4977271;28;20034;-92
2022/06/02 13:07:02;;;;;;;3.20;1.55;;;24.90;75.90;;;;;;4982104;28;20042;-91
2022/06/02 13:09:50;;;;;;;4.75;1.40;;;25.10;70.50;;;;;;4961339;28;20030;-91
2022/06/02 13:13:15;;;;;;;4.68;2.15;;;25.00;74.40;;;;;;4975723;28;20023;-93
2022/06/02 13:15:50;;;;;;;3.35;1.77;;;24.60;64.10;;;;;;4883106;29;20029;-89
2022/06/02 13:18:53;;;;;;;4.68;1.60;;;24.80;69.70;;;;;;4874675;29;20044;-89
2022/06/02 13:21:26;;;;;;;4.80;1.58;;;24.90;67.40;;;;;;4931723;28;20026;-87
2022/06/02 13:24:11;;;;;;;5.57;1.75;;;24.70;65.10;;;;;;4996649;28;20075;-88
2022/06/02 13:27:03;;;;;;;2.63;1.38;;;25.00;63.50;;;;;;4996232;28;20011;-90
2022/06/02 13:29:39;;;;;;;6.00;2.00;;;24.70;63.70;;;;;;4985206;28;20046;-88
2022/06/02 13:32:30;;;;;;;7.03;1.90;;;24.20;63.90;;;;;;4975350;28;20176;-88
2022/06/02 13:35:50;;;;;;;4.53;1.85;;;24.50;66.20;;;;;;4963243;29;20028;-92
2022/06/02 13:58:31;;;;;;;11.88;3.13;;;25.10;67.30;;;;;;5084632;28;20450;-63
2022/06/02 14:01:19;;;;;;;3.67;1.63;;;25.10;65.70;;;;;;5066799;28;20058;-64
2022/06/02 14:04:03;;;;;;;5.50;1.67;;;25.20;62.20;;;;;;5068716;28;20029;-65
2022/06/02 14:06:33;;;;;;;5.03;1.42;;;25.50;62.00;;;;;;5064322;28;20041;-64
2022/06/02 14:09:02;;;;;;;3.28;1.75;;;25.30;61.20;;;;;;5065689;28;20013;-64
2022/06/02 14:11:39;;;;;;;5.53;1.80;;;25.40;60.80;;;;;;5065240;28;20108;-64
2022/06/02 14:14:29;;;;;;;3.65;2.00;;;25.30;61.50;;;;;;5065403;28;20487;-65
2022/06/02 14:17:25;;;;;;;2.20;1.40;;;25.10;61.40;;;;;;5064391;28;20040;-64
2022/06/02 14:19:57;;;;;;;4.90;1.92;;;25.20;62.80;;;;;;5064249;28;20029;-64
2022/06/02 14:22:55;;;;;;;3.25;1.85;;;25.10;60.50;;;;;;5064724;28;20029;-64
2022/06/02 14:25:50;;;;;;;3.90;1.70;;;24.90;61.10;;;;;;5063087;28;20023;-64
2022/06/02 14:28:21;;;;;;;5.07;2.10;;;25.10;64.10;;;;;;5064523;28;20487;-64
2022/06/02 14:30:51;;;;;;;5.93;1.95;;;25.40;62.00;;;;;;5064553;28;20033;-63
2022/06/02 14:33:35;;;;;;;4.22;1.98;;;25.30;66.40;;;;;;5064927;28;20064;-64
2022/06/02 14:36:48;;;;;;;5.07;1.30;;;25.20;63.00;;;;;;5063431;28;20422;-64
2022/06/02 14:39:51;;;;;;;3.70;1.45;;;25.20;64.70;;;;;;5064811;28;20446;-62
2022/06/02 14:45:39;;;;;;;4.18;1.20;;;25.50;61.20;;;;;;5064702;28;20135;-64
2022/06/02 14:48:39;;;;;;;1.60;1.42;;;25.50;64.00;;;;;;5064757;28;20027;-63
2022/06/02 14:51:21;;;;;;;5.78;2.20;;;25.40;62.80;;;;;;5064724;28;20037;-64
2022/06/02 14:54:03;;;;;;;5.57;1.85;;;25.50;59.80;;;;;;5064722;28;20086;-63
2022/06/02 14:57:01;;;;;;;2.83;1.45;;;25.40;60.60;;;;;;5064326;28;20129;-65
2022/06/02 14:59:45;;;;;;;4.47;1.60;;;25.60;60.30;;;;;;5051285;28;20032;-64
2022/06/02 15:02:31;;;;;;;2.58;1.45;;;25.40;63.00;;;;;;5051227;28;20392;-63